Time;durP1;ratioP1;P1;durP2;ratioP2;P2;SDS_P1;SDS_P2;PMS_P1;PMS_P2;Temp;Humidity;BMP_temperature;BMP_pressure;BME280_temperature;BME280_humidity;BME280_pressure;Samples;Min_cycle;Max_cycle;Signal;HPM_P1;HPM_P2
2021/05/26 00:00:20;;;;;;;6.23;1.87;;;9.30;99.90;;;;;;4997048;28;20214;-91
2021/05/26 00:02:46;;;;;;;2.40;1.13;;;9.20;99.90;;;;;;4998347;28;20194;-92
2021/05/26 00:05:12;;;;;;;1.40;1.30;;;9.20;99.90;;;;;;5033563;28;21046;-92
2021/05/26 00:07:38;;;;;;;1.30;1.20;;;9.20;99.90;;;;;;5013463;28;20284;-91
2021/05/26 00:10:05;;;;;;;1.50;1.40;;;9.20;99.90;;;;;;4997408;28;20301;-92
2021/05/26 00:12:31;;;;;;;1.70;1.53;;;9.10;99.90;;;;;;5033479;28;20229;-91
2021/05/26 00:14:57;;;;;;;1.67;1.57;;;9.10;99.90;;;;;;4997558;28;20248;-91
2021/05/26 00:17:23;;;;;;;3.03;1.67;;;9.10;99.90;;;;;;4999164;28;20711;-91
2021/05/26 00:19:49;;;;;;;0.93;0.93;;;9.10;99.90;;;;;;4998732;28;20218;-92
2021/05/26 00:22:15;;;;;;;1.13;1.13;;;9.00;99.90;;;;;;4997426;28;20222;-89
2021/05/26 00:24:40;;;;;;;1.13;1.00;;;9.00;99.90;;;;;;4982875;28;20249;-91
2021/05/26 00:27:06;;;;;;;1.40;1.30;;;8.90;99.90;;;;;;4981188;28;20699;-91
2021/05/26 00:29:32;;;;;;;6.37;1.33;;;8.90;99.90;;;;;;5033869;28;20739;-92
2021/05/26 00:31:58;;;;;;;1.27;1.27;;;8.90;99.90;;;;;;5029918;28;20222;-91
2021/05/26 00:34:23;;;;;;;1.87;1.10;;;8.90;99.90;;;;;;5012026;28;20234;-91
2021/05/26 00:36:49;;;;;;;0.80;0.80;;;8.90;99.90;;;;;;4998007;28;20214;-89
2021/05/26 00:39:15;;;;;;;2.43;1.33;;;8.90;99.90;;;;;;4997878;28;20218;-91
2021/05/26 00:41:41;;;;;;;2.10;1.30;;;8.90;99.90;;;;;;5014523;28;20273;-92
2021/05/26 00:44:07;;;;;;;1.23;1.20;;;8.90;99.90;;;;;;4982137;28;20664;-92
2021/05/26 00:46:43;;;;;;;1.30;1.20;;;8.90;99.90;;;;;;5013554;28;20206;-92
2021/05/26 00:49:10;;;;;;;7.83;1.60;;;8.90;99.90;;;;;;5030953;28;20248;-90
2021/05/26 00:51:36;;;;;;;1.47;0.97;;;8.80;99.90;;;;;;5014214;28;20249;-91
2021/05/26 00:54:02;;;;;;;1.00;1.00;;;8.80;99.90;;;;;;5014842;28;20229;-91
2021/05/26 00:56:28;;;;;;;1.33;1.23;;;8.80;99.90;;;;;;5008872;28;20187;-92
2021/05/26 00:58:53;;;;;;;1.13;1.03;;;8.80;99.90;;;;;;4993034;28;20268;-88
2021/05/26 01:01:19;;;;;;;1.30;1.20;;;8.70;99.90;;;;;;5024415;28;20217;-91
2021/05/26 01:03:46;;;;;;;1.67;1.57;;;8.70;99.90;;;;;;5023076;28;20233;-91
2021/05/26 01:06:12;;;;;;;1.27;1.17;;;8.70;99.90;;;;;;5007773;28;20254;-91
2021/05/26 01:08:37;;;;;;;3.40;2.23;;;8.70;99.90;;;;;;4976363;28;20313;-91
2021/05/26 01:11:04;;;;;;;1.70;1.57;;;8.70;99.90;;;;;;4977036;28;21308;-90
2021/05/26 01:13:31;;;;;;;1.70;1.60;;;8.70;99.90;;;;;;4991186;28;20248;-89
2021/05/26 01:15:56;;;;;;;1.50;1.30;;;8.70;99.90;;;;;;5008629;28;20217;-89
2021/05/26 01:18:25;;;;;;;1.33;1.23;;;8.70;99.90;;;;;;5008744;28;20230;-88
2021/05/26 01:20:52;;;;;;;2.13;1.67;;;8.70;99.90;;;;;;5028054;28;20239;-90
2021/05/26 01:23:18;;;;;;;4.77;1.90;;;8.70;99.90;;;;;;5012399;28;20240;-90
2021/05/26 01:26:05;;;;;;;2.30;1.80;;;8.70;99.90;;;;;;4992405;28;20326;-90
2021/05/26 01:28:32;;;;;;;1.57;1.47;;;8.70;99.90;;;;;;5023376;28;20287;-89
2021/05/26 01:30:58;;;;;;;1.47;1.37;;;8.70;99.90;;;;;;5010748;28;20257;-87
2021/05/26 01:33:25;;;;;;;1.70;1.57;;;8.70;99.90;;;;;;5011267;28;20239;-90
2021/05/26 01:35:52;;;;;;;2.50;2.30;;;8.70;99.90;;;;;;5031082;28;20567;-90
2021/05/26 01:38:21;;;;;;;2.50;2.30;;;8.70;99.90;;;;;;5034003;28;20186;-91
2021/05/26 01:40:48;;;;;;;2.53;2.30;;;8.70;99.90;;;;;;5012510;28;20226;-90
2021/05/26 01:43:14;;;;;;;1.80;1.67;;;8.70;99.90;;;;;;4998070;28;20248;-91
2021/05/26 01:45:41;;;;;;;2.87;1.37;;;8.70;99.90;;;;;;5033205;28;20279;-89
2021/05/26 01:48:07;;;;;;;1.83;1.50;;;8.60;99.90;;;;;;5029842;28;20273;-91
2021/05/26 01:50:34;;;;;;;1.67;1.57;;;8.50;99.90;;;;;;4967518;28;20236;-88
2021/05/26 01:53:07;;;;;;;3.23;1.70;;;8.50;99.90;;;;;;4979588;28;20635;-90
2021/05/26 01:55:34;;;;;;;2.00;1.60;;;8.40;99.90;;;;;;4975422;28;20227;-90
2021/05/26 01:58:01;;;;;;;3.37;1.40;;;8.40;99.90;;;;;;4972561;28;20315;-89
2021/05/26 02:00:27;;;;;;;6.43;1.87;;;8.30;99.90;;;;;;4979253;28;20217;-88
2021/05/26 02:02:53;;;;;;;2.00;1.80;;;8.20;99.90;;;;;;4942302;28;20202;-91
2021/05/26 02:05:19;;;;;;;1.73;1.30;;;8.10;99.90;;;;;;4975520;28;20700;-91
2021/05/26 02:07:47;;;;;;;1.80;1.70;;;8.10;99.90;;;;;;4978334;28;20303;-89
2021/05/26 02:10:16;;;;;;;2.20;1.80;;;8.00;99.90;;;;;;4989494;28;20219;-87
2021/05/26 02:12:43;;;;;;;2.10;2.00;;;7.90;99.90;;;;;;4991301;28;20263;-90
2021/05/26 02:15:14;;;;;;;1.60;1.50;;;7.80;99.90;;;;;;4964168;28;20235;-88
2021/05/26 02:17:40;;;;;;;1.87;1.60;;;7.80;99.90;;;;;;4966317;28;20197;-92
2021/05/26 02:20:08;;;;;;;3.23;2.93;;;7.70;99.90;;;;;;4980364;28;20193;-89
2021/05/26 02:22:34;;;;;;;1.83;1.73;;;7.70;99.90;;;;;;4972417;28;20690;-91
2021/05/26 02:25:02;;;;;;;2.40;2.20;;;7.70;99.90;;;;;;4971792;28;20231;-90
2021/05/26 02:27:28;;;;;;;2.83;2.20;;;7.70;99.90;;;;;;4957674;28;20240;-90
2021/05/26 02:29:54;;;;;;;2.10;1.70;;;7.80;99.90;;;;;;4976215;28;20212;-87
2021/05/26 02:32:22;;;;;;;3.40;3.10;;;7.80;99.90;;;;;;4951263;28;20702;-91
2021/05/26 02:34:47;;;;;;;2.97;2.27;;;7.90;99.90;;;;;;4959878;28;20212;-90
2021/05/26 02:37:13;;;;;;;3.03;2.73;;;7.90;99.90;;;;;;4984356;28;20698;-89
2021/05/26 02:39:39;;;;;;;2.07;1.87;;;8.00;99.90;;;;;;4976311;28;20298;-89
2021/05/26 02:42:05;;;;;;;1.80;1.70;;;8.10;99.90;;;;;;4980520;28;20588;-88
2021/05/26 02:44:31;;;;;;;3.13;2.90;;;8.10;99.90;;;;;;4960676;28;20737;-89
2021/05/26 02:46:57;;;;;;;3.27;2.60;;;8.20;99.90;;;;;;4977812;28;20258;-90
2021/05/26 02:49:22;;;;;;;3.73;2.87;;;8.30;99.90;;;;;;4963037;28;20244;-90
2021/05/26 02:51:48;;;;;;;4.67;2.37;;;8.30;99.90;;;;;;4996116;28;20215;-92
2021/05/26 02:54:14;;;;;;;2.47;2.27;;;8.30;99.90;;;;;;4993009;28;20338;-89
2021/05/26 02:56:40;;;;;;;4.00;2.30;;;8.40;99.90;;;;;;4994982;28;20195;-90
2021/05/26 02:59:07;;;;;;;3.17;2.90;;;8.40;99.90;;;;;;4980167;28;20200;-90
2021/05/26 03:01:34;;;;;;;3.30;2.90;;;8.40;99.90;;;;;;4976481;28;20219;-90
2021/05/26 03:03:59;;;;;;;3.00;2.70;;;8.50;99.90;;;;;;4993575;28;20243;-91
2021/05/26 03:06:25;;;;;;;2.77;2.43;;;8.60;99.90;;;;;;4990994;28;20307;-90
2021/05/26 03:08:51;;;;;;;4.63;3.23;;;8.70;99.90;;;;;;4974113;28;20787;-90
2021/05/26 03:11:17;;;;;;;4.17;3.03;;;8.80;99.90;;;;;;4978403;28;20191;-91
2021/05/26 03:13:43;;;;;;;8.33;2.53;;;8.90;99.90;;;;;;4994686;28;20634;-92
2021/05/26 03:16:10;;;;;;;2.57;2.33;;;9.00;99.90;;;;;;4992402;28;20223;-87
2021/05/26 03:18:36;;;;;;;2.83;2.47;;;9.10;99.90;;;;;;4975872;28;20251;-88
2021/05/26 03:21:03;;;;;;;5.03;2.07;;;9.20;99.90;;;;;;4993675;28;20339;-88
2021/05/26 03:23:28;;;;;;;1.83;1.70;;;9.20;99.90;;;;;;4979359;28;20261;-91
2021/05/26 03:25:54;;;;;;;2.07;1.90;;;9.30;99.90;;;;;;4991380;28;20639;-92
2021/05/26 03:28:20;;;;;;;2.30;2.10;;;9.30;99.90;;;;;;4975417;28;20601;-88
2021/05/26 03:30:46;;;;;;;2.60;1.50;;;9.30;99.90;;;;;;4960580;28;20230;-92
2021/05/26 03:33:14;;;;;;;2.93;2.63;;;9.30;99.90;;;;;;4994587;28;20315;-89
2021/05/26 03:35:41;;;;;;;1.73;1.63;;;9.30;99.90;;;;;;4991463;28;20250;-90
2021/05/26 03:38:07;;;;;;;2.50;2.30;;;9.40;99.90;;;;;;4995149;28;20196;-90
2021/05/26 03:40:34;;;;;;;2.17;1.80;;;9.40;99.90;;;;;;4989070;28;20239;-89
2021/05/26 03:43:00;;;;;;;1.30;1.20;;;9.40;99.90;;;;;;4994649;28;20294;-89
2021/05/26 03:45:27;;;;;;;1.50;1.40;;;9.30;99.90;;;;;;4992967;28;20219;-90
2021/05/26 03:47:53;;;;;;;3.90;2.50;;;9.30;99.90;;;;;;4991431;28;20216;-91
2021/05/26 03:50:19;;;;;;;1.47;1.37;;;9.30;99.90;;;;;;5018443;28;21276;-89
2021/05/26 03:52:47;;;;;;;3.70;1.77;;;9.30;99.90;;;;;;4998640;28;21266;-89
2021/05/26 03:55:16;;;;;;;2.50;1.33;;;9.30;99.90;;;;;;5001210;28;20221;-89
2021/05/26 03:57:42;;;;;;;12.43;2.93;;;9.20;99.90;;;;;;5035399;28;20230;-91
2021/05/26 04:00:10;;;;;;;2.53;2.33;;;9.20;99.90;;;;;;5014513;28;20699;-93
2021/05/26 04:02:36;;;;;;;2.27;1.80;;;9.10;99.90;;;;;;5014980;28;20331;-88
2021/05/26 04:05:03;;;;;;;8.43;2.80;;;9.10;99.90;;;;;;5015799;28;20816;-88
2021/05/26 04:07:29;;;;;;;4.03;2.53;;;9.10;99.90;;;;;;5015865;28;20237;-87
2021/05/26 04:09:54;;;;;;;3.50;2.90;;;9.10;99.90;;;;;;4981063;28;20941;-89
2021/05/26 04:12:21;;;;;;;2.70;2.50;;;9.10;99.90;;;;;;4996845;28;20221;-87
2021/05/26 04:14:47;;;;;;;3.10;2.20;;;9.10;99.90;;;;;;5014572;28;20805;-88
2021/05/26 04:17:12;;;;;;;5.23;2.83;;;9.20;99.90;;;;;;5014898;28;20706;-90
2021/05/26 04:19:38;;;;;;;2.60;2.13;;;9.20;99.90;;;;;;5015531;28;20226;-90
2021/05/26 04:22:04;;;;;;;2.43;2.07;;;9.20;99.90;;;;;;4983344;28;20301;-89
2021/05/26 04:24:30;;;;;;;2.47;2.27;;;9.30;99.90;;;;;;5032108;28;20224;-89
2021/05/26 04:26:55;;;;;;;2.90;2.27;;;9.40;99.90;;;;;;5014726;28;20237;-89
2021/05/26 04:29:21;;;;;;;3.13;2.23;;;9.50;99.90;;;;;;5032599;28;20250;-90
2021/05/26 04:31:47;;;;;;;2.10;1.73;;;9.60;99.90;;;;;;5028391;28;20448;-87
2021/05/26 04:34:16;;;;;;;3.37;2.43;;;9.70;99.90;;;;;;4995477;28;20234;-91
2021/05/26 04:36:43;;;;;;;1.87;1.73;;;9.70;99.90;;;;;;4994238;28;20219;-93
2021/05/26 04:39:10;;;;;;;2.50;2.23;;;9.80;99.90;;;;;;5036393;28;20701;-89
2021/05/26 04:41:36;;;;;;;2.07;1.87;;;9.80;99.90;;;;;;5045285;28;20193;-89
2021/05/26 04:44:02;;;;;;;2.13;1.93;;;9.80;99.90;;;;;;5021234;28;20190;-91
2021/05/26 04:46:28;;;;;;;2.33;2.10;;;9.90;99.90;;;;;;4981452;28;20214;-91
2021/05/26 04:48:53;;;;;;;5.30;2.63;;;9.90;99.90;;;;;;4995889;28;20234;-91
2021/05/26 04:51:19;;;;;;;1.93;1.63;;;9.90;99.90;;;;;;5009719;28;20272;-90
2021/05/26 04:53:45;;;;;;;1.70;1.60;;;10.00;99.90;;;;;;5007118;28;20221;-87
2021/05/26 04:56:11;;;;;;;2.97;1.83;;;10.20;99.90;;;;;;4997594;28;20187;-88
2021/05/26 04:58:36;;;;;;;2.57;1.90;;;10.30;99.90;;;;;;4993997;28;20230;-88
2021/05/26 05:01:05;;;;;;;2.23;2.03;;;10.30;99.90;;;;;;4993509;28;20293;-90
2021/05/26 05:03:31;;;;;;;2.07;1.80;;;10.50;99.90;;;;;;4994997;28;20236;-89
2021/05/26 05:05:56;;;;;;;2.57;2.13;;;10.50;99.90;;;;;;5011612;28;20435;-89
2021/05/26 05:08:22;;;;;;;4.17;1.63;;;10.50;99.90;;;;;;5011902;28;20215;-92
2021/05/26 05:10:48;;;;;;;2.60;2.43;;;10.70;99.90;;;;;;5024441;28;20227;-92
2021/05/26 05:13:14;;;;;;;1.40;1.30;;;10.80;99.90;;;;;;5007790;28;20222;-94
2021/05/26 05:15:40;;;;;;;1.70;1.60;;;10.80;99.90;;;;;;4993776;28;20296;-92
2021/05/26 05:18:05;;;;;;;0.80;0.80;;;11.20;99.90;;;;;;5010853;28;20223;-91
2021/05/26 05:20:31;;;;;;;1.03;0.90;;;13.00;99.90;;;;;;4997187;28;20203;-92
2021/05/26 05:22:57;;;;;;;1.63;1.47;;;13.80;99.90;;;;;;4997408;28;20226;-91
2021/05/26 05:25:23;;;;;;;1.60;1.50;;;14.70;99.90;;;;;;4993427;28;20680;-92
2021/05/26 05:27:50;;;;;;;1.37;1.27;;;13.80;99.90;;;;;;5009858;28;20231;-92
2021/05/26 05:30:16;;;;;;;2.43;1.40;;;14.20;99.90;;;;;;5008841;28;20618;-91
2021/05/26 05:32:42;;;;;;;1.37;1.27;;;15.60;99.90;;;;;;5028207;28;20216;-90
2021/05/26 05:35:09;;;;;;;3.17;1.47;;;15.30;99.90;;;;;;5014044;28;20334;-89
2021/05/26 05:37:35;;;;;;;1.03;1.03;;;14.40;99.90;;;;;;5011880;28;20229;-91
2021/05/26 05:40:01;;;;;;;1.23;1.00;;;13.20;99.90;;;;;;4980203;28;20215;-92
2021/05/26 05:42:28;;;;;;;1.80;1.33;;;12.20;99.90;;;;;;4993770;28;20218;-91
2021/05/26 05:44:54;;;;;;;1.37;1.23;;;11.70;99.90;;;;;;4980458;28;20333;-91
2021/05/26 05:47:20;;;;;;;1.50;1.30;;;11.50;99.90;;;;;;5011370;28;20215;-88
2021/05/26 05:49:46;;;;;;;0.97;0.90;;;11.30;99.90;;;;;;4988854;28;20301;-89
2021/05/26 05:52:12;;;;;;;0.47;0.47;;;11.10;99.90;;;;;;4991595;28;20338;-89
2021/05/26 05:54:38;;;;;;;2.83;1.13;;;10.90;99.90;;;;;;5008265;28;20665;-89
2021/05/26 05:57:05;;;;;;;1.17;1.00;;;10.80;99.90;;;;;;5012751;28;20236;-93
2021/05/26 05:59:31;;;;;;;0.80;0.80;;;10.80;99.90;;;;;;4993040;28;20208;-90
2021/05/26 06:01:57;;;;;;;1.20;1.10;;;10.80;99.90;;;;;;5013305;28;20223;-91
2021/05/26 06:04:23;;;;;;;0.80;0.80;;;11.00;99.90;;;;;;4996146;28;20606;-92
2021/05/26 06:06:48;;;;;;;0.53;0.53;;;11.20;99.90;;;;;;5013540;28;20226;-90
2021/05/26 06:09:14;;;;;;;1.60;1.23;;;11.20;99.90;;;;;;5014171;28;20308;-91
2021/05/26 06:11:40;;;;;;;0.53;0.53;;;11.20;99.90;;;;;;5015217;28;20182;-92
2021/05/26 06:14:07;;;;;;;0.70;0.70;;;11.40;99.90;;;;;;5015781;28;20762;-90
2021/05/26 06:16:37;;;;;;;0.60;0.60;;;11.40;99.90;;;;;;5010555;28;20214;-92
2021/05/26 06:19:04;;;;;;;1.43;0.60;;;11.50;99.90;;;;;;5031549;28;20237;-91
2021/05/26 06:21:30;;;;;;;0.53;0.50;;;11.40;99.90;;;;;;5010953;28;20271;-90
2021/05/26 06:23:56;;;;;;;1.67;0.70;;;11.60;99.90;;;;;;5013288;28;20554;-91
2021/05/26 06:26:23;;;;;;;0.63;0.63;;;11.80;99.90;;;;;;5014800;28;20201;-90
2021/05/26 06:28:48;;;;;;;0.83;0.77;;;12.30;99.90;;;;;;5029032;28;20238;-91
2021/05/26 06:31:20;;;;;;;0.50;0.50;;;12.80;99.90;;;;;;4995628;28;20225;-90
2021/05/26 06:33:45;;;;;;;0.60;0.60;;;14.20;99.90;;;;;;4997034;28;20777;-90
2021/05/26 06:36:12;;;;;;;0.60;0.60;;;15.60;99.90;;;;;;5011249;28;20222;-93
2021/05/26 06:38:38;;;;;;;0.37;0.37;;;17.00;99.90;;;;;;4997821;28;20203;-90
2021/05/26 06:41:04;;;;;;;0.30;0.30;;;16.60;99.90;;;;;;5003162;28;20187;-89
2021/05/26 06:43:31;;;;;;;0.47;0.47;;;16.90;99.90;;;;;;4998446;28;20234;-89
2021/05/26 06:45:56;;;;;;;0.70;0.70;;;16.30;99.90;;;;;;5000110;28;20229;-90
2021/05/26 06:48:23;;;;;;;0.30;0.30;;;16.40;99.90;;;;;;5034100;28;20237;-92
2021/05/26 06:50:49;;;;;;;0.57;0.57;;;16.60;99.90;;;;;;5013842;28;20227;-91
2021/05/26 06:53:15;;;;;;;1.13;0.60;;;16.00;99.90;;;;;;5019273;28;20198;-90
2021/05/26 06:55:41;;;;;;;0.67;0.37;;;15.70;99.90;;;;;;5038849;28;20283;-93
2021/05/26 06:58:06;;;;;;;0.30;0.30;;;15.60;99.90;;;;;;4985945;28;20268;-91
2021/05/26 07:00:34;;;;;;;1.20;0.40;;;16.20;99.90;;;;;;4985520;28;20268;-90
2021/05/26 07:03:00;;;;;;;0.40;0.40;;;16.90;99.90;;;;;;4985783;28;20225;-91
2021/05/26 07:05:27;;;;;;;0.57;0.57;;;16.50;99.90;;;;;;5000015;28;20516;-91
2021/05/26 07:07:53;;;;;;;0.67;0.60;;;16.90;99.90;;;;;;5009870;28;20249;-90
2021/05/26 07:10:19;;;;;;;0.60;0.60;;;16.90;99.90;;;;;;5014824;28;20211;-91
2021/05/26 07:12:50;;;;;;;0.50;0.50;;;18.00;99.90;;;;;;5017874;28;20219;-90
2021/05/26 07:15:17;;;;;;;2.50;0.77;;;18.30;99.90;;;;;;5014396;28;20230;-90
2021/05/26 07:17:44;;;;;;;0.97;0.63;;;17.80;99.90;;;;;;5000210;28;20285;-90
2021/05/26 07:20:11;;;;;;;0.50;0.50;;;17.10;99.90;;;;;;4992547;28;20186;-89
2021/05/26 07:22:37;;;;;;;0.30;0.30;;;15.30;99.90;;;;;;5034831;28;20325;-89
2021/05/26 07:25:03;;;;;;;0.50;0.50;;;13.50;99.90;;;;;;5033715;28;20266;-90
2021/05/26 07:27:29;;;;;;;1.03;0.80;;;13.90;99.90;;;;;;5034893;28;20221;-90
2021/05/26 07:29:55;;;;;;;0.63;0.63;;;14.60;99.90;;;;;;4995506;28;20210;-90
2021/05/26 07:32:20;;;;;;;2.10;0.77;;;15.80;99.90;;;;;;4984927;28;20225;-91
2021/05/26 07:34:46;;;;;;;3.10;0.77;;;17.50;99.90;;;;;;4997591;28;20218;-91
2021/05/26 07:37:12;;;;;;;0.60;0.60;;;18.20;99.90;;;;;;4998107;28;20206;-90
2021/05/26 07:39:38;;;;;;;1.07;0.40;;;17.90;99.90;;;;;;5014114;28;20237;-90
2021/05/26 07:42:05;;;;;;;1.37;0.50;;;17.20;99.90;;;;;;5013873;28;20318;-93
2021/05/26 07:44:31;;;;;;;0.70;0.70;;;17.20;99.90;;;;;;5039709;28;20230;-92
2021/05/26 07:46:57;;;;;;;0.77;0.70;;;17.70;99.90;;;;;;5001149;28;20213;-92
2021/05/26 07:49:23;;;;;;;0.60;0.60;;;17.00;99.90;;;;;;5014823;28;20264;-91
2021/05/26 07:51:54;;;;;;;0.50;0.50;;;17.30;99.90;;;;;;5015514;28;20230;-89
2021/05/26 07:54:24;;;;;;;0.83;0.63;;;16.90;99.90;;;;;;4999451;28;20220;-90
2021/05/26 07:56:50;;;;;;;0.20;0.20;;;16.60;99.90;;;;;;5030066;28;21409;-91
2021/05/26 07:59:16;;;;;;;1.17;0.70;;;15.50;99.90;;;;;;4999415;28;20231;-91
2021/05/26 08:01:42;;;;;;;0.50;0.50;;;14.60;99.90;;;;;;5015859;28;20218;-92
2021/05/26 08:04:11;;;;;;;0.43;0.40;;;14.60;99.90;;;;;;4983430;28;20300;-91
2021/05/26 08:06:37;;;;;;;0.30;0.30;;;14.30;99.90;;;;;;4999907;28;20228;-91
2021/05/26 08:09:04;;;;;;;0.70;0.60;;;14.90;99.90;;;;;;4997542;28;20606;-90
2021/05/26 08:11:30;;;;;;;0.30;0.30;;;14.50;99.90;;;;;;5033278;28;20190;-90
2021/05/26 08:13:59;;;;;;;0.43;0.43;;;14.00;99.90;;;;;;5014007;28;20215;-92
2021/05/26 08:16:26;;;;;;;2.00;0.67;;;13.60;99.90;;;;;;4999435;28;20272;-89
2021/05/26 08:18:52;;;;;;;0.60;0.60;;;13.40;99.90;;;;;;5031387;28;20225;-91
2021/05/26 08:21:18;;;;;;;1.10;0.73;;;13.10;99.90;;;;;;4982125;28;20229;-90
2021/05/26 08:23:44;;;;;;;0.60;0.60;;;13.20;99.90;;;;;;5013811;28;20190;-92
2021/05/26 08:26:14;;;;;;;0.53;0.50;;;13.40;99.90;;;;;;4999721;28;20186;-90
2021/05/26 08:28:41;;;;;;;0.90;0.70;;;14.10;99.90;;;;;;4998092;28;20719;-89
2021/05/26 08:31:07;;;;;;;1.33;0.80;;;15.90;99.90;;;;;;4998042;28;20226;-91
2021/05/26 08:33:33;;;;;;;1.03;0.73;;;16.60;99.90;;;;;;5015063;28;20217;-90
2021/05/26 08:35:58;;;;;;;0.57;0.57;;;16.10;99.90;;;;;;4997088;28;21305;-89
2021/05/26 08:38:24;;;;;;;0.50;0.50;;;15.70;99.90;;;;;;4984233;28;20198;-93
2021/05/26 08:40:51;;;;;;;0.63;0.63;;;14.20;99.90;;;;;;5010156;28;20218;-91
2021/05/26 08:43:17;;;;;;;1.53;0.90;;;13.50;99.90;;;;;;5010754;28;20695;-89
2021/05/26 08:45:43;;;;;;;0.70;0.70;;;13.40;99.90;;;;;;5030170;28;20336;-90
2021/05/26 08:48:13;;;;;;;0.90;0.90;;;13.40;99.90;;;;;;4983062;28;20245;-91
2021/05/26 08:50:48;;;;;;;3.00;0.93;;;13.70;99.90;;;;;;5030484;28;20234;-90
2021/05/26 08:53:14;;;;;;;0.70;0.70;;;14.00;99.90;;;;;;4999003;28;20284;-91
2021/05/26 08:55:40;;;;;;;1.83;1.10;;;13.90;99.90;;;;;;4996040;28;20616;-91
2021/05/26 08:58:06;;;;;;;4.37;0.70;;;13.60;99.90;;;;;;4995897;28;20751;-88
2021/05/26 09:00:31;;;;;;;2.90;0.90;;;13.40;99.90;;;;;;4994226;28;20240;-91
2021/05/26 09:02:57;;;;;;;4.00;0.90;;;13.90;99.90;;;;;;4983940;28;20289;-90
2021/05/26 09:05:29;;;;;;;4.53;0.70;;;14.00;99.90;;;;;;4982357;28;21143;-89
2021/05/26 09:07:56;;;;;;;0.53;0.53;;;14.00;99.90;;;;;;5011309;28;20326;-90
2021/05/26 09:10:22;;;;;;;1.00;1.00;;;13.60;99.90;;;;;;5026363;28;20253;-90
2021/05/26 09:12:51;;;;;;;0.40;0.40;;;13.40;99.90;;;;;;5007747;28;20222;-92
2021/05/26 09:15:20;;;;;;;0.60;0.60;;;13.30;99.90;;;;;;5027845;28;20210;-93
2021/05/26 09:17:48;;;;;;;1.70;1.00;;;13.00;99.90;;;;;;5025883;28;20197;-91
2021/05/26 09:20:23;;;;;;;0.60;0.60;;;12.90;99.90;;;;;;5013721;28;20308;-90
2021/05/26 09:23:08;;;;;;;0.90;0.90;;;12.90;99.90;;;;;;5031261;28;20218;-93
2021/05/26 09:25:56;;;;;;;2.40;2.20;;;13.10;99.90;;;;;;5000107;28;20313;-90
2021/05/26 09:28:35;;;;;;;1.20;1.10;;;14.40;99.90;;;;;;5013489;28;20303;-94
2021/05/26 09:31:06;;;;;;;0.93;0.43;;;13.90;99.90;;;;;;5004276;28;20236;-91
2021/05/26 09:33:44;;;;;;;1.30;0.77;;;13.40;99.90;;;;;;5028029;28;20304;-91
2021/05/26 09:36:21;;;;;;;1.70;1.03;;;13.50;99.90;;;;;;5043221;28;20209;-91
2021/05/26 09:38:59;;;;;;;0.50;0.50;;;13.80;99.90;;;;;;4995470;28;20194;-92
2021/05/26 09:41:27;;;;;;;0.97;0.97;;;13.20;99.90;;;;;;5030519;28;20182;-91
2021/05/26 09:43:55;;;;;;;1.37;0.77;;;13.10;99.90;;;;;;5012331;28;20217;-92
2021/05/26 09:46:21;;;;;;;0.93;0.80;;;13.30;99.90;;;;;;5029892;28;20219;-92
2021/05/26 09:49:07;;;;;;;1.00;0.90;;;13.40;99.90;;;;;;5008927;28;20234;-91
2021/05/26 09:51:39;;;;;;;0.80;0.80;;;12.90;99.90;;;;;;5009858;28;20238;-92
2021/05/26 09:54:08;;;;;;;5.30;1.07;;;13.10;99.90;;;;;;4993359;28;20222;-92
2021/05/26 09:56:33;;;;;;;1.80;1.30;;;14.30;99.90;;;;;;5010471;28;20266;-93
2021/05/26 09:59:02;;;;;;;0.70;0.70;;;15.70;99.90;;;;;;5010597;28;20214;-92
2021/05/26 10:01:29;;;;;;;0.67;0.67;;;16.30;99.90;;;;;;5027985;28;20214;-93
2021/05/26 10:03:55;;;;;;;3.50;1.40;;;16.60;99.90;;;;;;5008355;28;20225;-92
2021/05/26 10:06:24;;;;;;;1.20;1.10;;;17.10;99.90;;;;;;5010725;28;20227;-92
2021/05/26 10:08:52;;;;;;;21.33;3.20;;;17.20;99.90;;;;;;5008858;28;20603;-91
2021/05/26 10:11:19;;;;;;;1.33;1.20;;;16.80;99.90;;;;;;5013931;28;20190;-91
2021/05/26 10:13:46;;;;;;;6.47;1.20;;;16.90;99.90;;;;;;5015546;28;20316;-92
2021/05/26 10:16:20;;;;;;;4.70;1.30;;;16.30;99.90;;;;;;5015751;28;21227;-90
2021/05/26 10:18:49;;;;;;;8.00;1.50;;;15.50;99.90;;;;;;5014194;28;20215;-91
2021/05/26 10:21:20;;;;;;;0.73;0.73;;;15.20;99.90;;;;;;5015381;28;20251;-91
2021/05/26 10:23:51;;;;;;;1.37;1.03;;;15.10;99.90;;;;;;5012721;28;20179;-90
2021/05/26 10:26:50;;;;;;;0.73;0.50;;;15.80;99.90;;;;;;5015797;28;20700;-90
2021/05/26 10:29:35;;;;;;;1.83;1.30;;;15.40;99.90;;;;;;5013443;28;20587;-89
2021/05/26 10:32:21;;;;;;;2.13;0.77;;;14.50;99.90;;;;;;5015711;28;20229;-91
2021/05/26 10:34:49;;;;;;;1.67;1.13;;;14.50;99.90;;;;;;5014971;28;20534;-93
2021/05/26 10:37:26;;;;;;;1.90;1.23;;;14.60;99.90;;;;;;5015312;28;20207;-92
2021/05/26 10:39:53;;;;;;;4.43;1.00;;;14.80;99.90;;;;;;5014646;28;20258;-91
2021/05/26 10:42:30;;;;;;;2.40;0.70;;;14.60;99.90;;;;;;5016146;28;20226;-92
2021/05/26 10:44:56;;;;;;;2.50;0.83;;;14.70;99.90;;;;;;5029424;28;20268;-92
2021/05/26 10:47:37;;;;;;;1.37;1.17;;;14.20;99.90;;;;;;5016327;28;20610;-91
2021/05/26 10:50:04;;;;;;;6.03;1.07;;;14.20;99.90;;;;;;5001904;28;20233;-91
2021/05/26 10:52:55;;;;;;;0.60;0.60;;;14.60;99.90;;;;;;4978916;28;20650;-89
2021/05/26 10:55:44;;;;;;;1.17;1.03;;;14.40;99.90;;;;;;4992010;28;20266;-88
2021/05/26 10:58:14;;;;;;;1.77;0.93;;;14.40;99.90;;;;;;4988932;28;20308;-88
2021/05/26 11:00:44;;;;;;;3.03;1.23;;;14.50;99.90;;;;;;4987080;28;20228;-88
2021/05/26 11:03:29;;;;;;;3.03;1.10;;;14.00;99.90;;;;;;4973921;28;20251;-87
2021/05/26 11:06:01;;;;;;;0.70;0.60;;;13.80;99.90;;;;;;4995217;28;20294;-89
2021/05/26 11:08:55;;;;;;;0.67;0.60;;;13.30;99.90;;;;;;4993152;28;20211;-89
2021/05/26 11:11:34;;;;;;;2.33;0.87;;;13.00;99.90;;;;;;4992762;28;20302;-89
2021/05/26 11:14:00;;;;;;;0.47;0.47;;;12.50;99.90;;;;;;4992949;28;20238;-88
2021/05/26 11:16:46;;;;;;;0.87;0.70;;;12.50;99.90;;;;;;4995027;28;20220;-89
2021/05/26 11:19:26;;;;;;;2.77;0.77;;;12.30;99.90;;;;;;4959271;28;20315;-89
2021/05/26 11:21:57;;;;;;;0.67;0.67;;;12.20;99.90;;;;;;4993515;28;20255;-89
2021/05/26 11:24:25;;;;;;;0.80;0.80;;;12.10;99.90;;;;;;4993758;28;20309;-88
2021/05/26 11:26:51;;;;;;;1.17;1.07;;;12.00;99.90;;;;;;4993258;28;20366;-89
2021/05/26 11:29:34;;;;;;;0.83;0.83;;;12.00;99.90;;;;;;4992469;28;20228;-89
2021/05/26 11:32:14;;;;;;;2.70;0.70;;;11.90;99.90;;;;;;4996211;28;21125;-89
2021/05/26 11:34:43;;;;;;;1.40;1.10;;;11.90;99.90;;;;;;4992717;28;20223;-88
2021/05/26 11:37:10;;;;;;;2.60;1.60;;;12.00;99.90;;;;;;4980055;28;20355;-87
2021/05/26 11:39:37;;;;;;;0.40;0.40;;;12.10;99.90;;;;;;4959883;28;20231;-88
2021/05/26 11:42:19;;;;;;;1.60;0.90;;;12.10;99.90;;;;;;5007883;28;20224;-88
2021/05/26 11:44:59;;;;;;;3.53;1.20;;;12.00;99.90;;;;;;5007585;28;20581;-88
2021/05/26 11:47:52;;;;;;;1.70;1.00;;;12.00;99.90;;;;;;4993687;28;20176;-90
2021/05/26 11:50:19;;;;;;;2.37;1.00;;;12.00;99.90;;;;;;4986778;28;20235;-90
2021/05/26 11:53:16;;;;;;;0.60;0.60;;;12.00;99.90;;;;;;5012782;28;20238;-90
2021/05/26 11:55:47;;;;;;;1.53;1.20;;;12.20;99.90;;;;;;4991853;28;20224;-89
2021/05/26 11:58:14;;;;;;;3.43;1.07;;;12.30;99.90;;;;;;4993376;28;20226;-89
2021/05/26 12:00:40;;;;;;;3.37;1.17;;;12.40;99.90;;;;;;4992981;28;20223;-90
2021/05/26 12:03:13;;;;;;;1.70;1.00;;;12.50;99.90;;;;;;4992331;28;20258;-90
2021/05/26 12:05:39;;;;;;;2.47;0.57;;;12.50;99.90;;;;;;5009514;28;20184;-90
2021/05/26 12:08:21;;;;;;;2.63;1.20;;;12.30;99.90;;;;;;5011845;28;20771;-90
2021/05/26 12:10:58;;;;;;;0.70;0.70;;;12.30;99.90;;;;;;4995395;28;21030;-90
2021/05/26 12:13:27;;;;;;;0.63;0.63;;;12.30;99.90;;;;;;4992674;28;20226;-90
2021/05/26 12:15:53;;;;;;;1.27;0.70;;;12.10;99.90;;;;;;4993677;28;20637;-90
2021/05/26 12:18:20;;;;;;;1.33;1.10;;;12.10;99.90;;;;;;4973156;28;20228;-90
2021/05/26 12:20:49;;;;;;;1.00;0.77;;;12.10;99.90;;;;;;4991557;28;20212;-91
2021/05/26 12:23:28;;;;;;;1.50;1.40;;;12.30;99.90;;;;;;5009882;28;20190;-88
2021/05/26 12:25:54;;;;;;;0.67;0.67;;;12.30;99.90;;;;;;4991578;28;20222;-90
2021/05/26 12:28:21;;;;;;;0.73;0.73;;;12.50;99.90;;;;;;4994161;28;20599;-90
2021/05/26 12:30:49;;;;;;;0.73;0.70;;;12.40;99.90;;;;;;4991497;28;20219;-89
2021/05/26 12:33:18;;;;;;;0.67;0.67;;;12.40;99.90;;;;;;5007946;28;20208;-90
2021/05/26 12:35:44;;;;;;;1.27;1.13;;;12.10;99.90;;;;;;4992598;28;20262;-90
2021/05/26 12:38:21;;;;;;;0.70;0.70;;;12.10;99.90;;;;;;5008602;28;20234;-90
2021/05/26 12:40:48;;;;;;;2.27;1.00;;;11.80;99.90;;;;;;4992256;28;20208;-90
2021/05/26 12:43:29;;;;;;;4.87;0.83;;;11.80;99.90;;;;;;4993268;28;20251;-89
2021/05/26 12:45:56;;;;;;;1.03;0.70;;;11.70;99.90;;;;;;4996247;28;20207;-90
2021/05/26 12:48:27;;;;;;;4.73;1.00;;;11.70;99.90;;;;;;4990954;28;20259;-89
2021/05/26 12:50:55;;;;;;;1.77;1.17;;;11.70;99.90;;;;;;4999107;28;20330;-89
2021/05/26 12:53:21;;;;;;;2.00;1.53;;;11.70;99.90;;;;;;4995131;28;20187;-89
2021/05/26 12:55:47;;;;;;;2.60;1.63;;;11.70;99.90;;;;;;4997055;28;20253;-88